Time;durP1;ratioP1;P1;durP2;ratioP2;P2;SDS_P1;SDS_P2;PMS_P1;PMS_P2;Temp;Humidity;BMP_temperature;BMP_pressure;BME280_temperature;BME280_humidity;BME280_pressure;Samples;Min_cycle;Max_cycle;Signal;HPM_P1;HPM_P2
2024/01/30 00:00:46;;;;;;;14.60;8.93;;;5.20;99.90;;;;;;5069793;28;20101;-47
2024/01/30 00:03:12;;;;;;;16.55;9.32;;;5.40;99.90;;;;;;5068939;28;20074;-43
2024/01/30 00:05:37;;;;;;;20.38;8.85;;;5.50;99.90;;;;;;5069289;28;20084;-46
2024/01/30 00:08:03;;;;;;;21.92;9.98;;;5.50;99.90;;;;;;5075805;28;20111;-44
2024/01/30 00:10:29;;;;;;;16.55;8.88;;;5.60;99.90;;;;;;5072408;28;20453;-44
2024/01/30 00:12:54;;;;;;;14.52;8.60;;;5.70;99.90;;;;;;5069066;28;20024;-46
2024/01/30 00:15:20;;;;;;;12.07;8.23;;;5.70;99.90;;;;;;5068992;28;20029;-43
2024/01/30 00:17:45;;;;;;;14.45;9.25;;;5.80;99.90;;;;;;5068835;28;20440;-47
2024/01/30 00:20:11;;;;;;;12.23;8.15;;;5.90;99.90;;;;;;5067434;28;20028;-43
2024/01/30 00:22:36;;;;;;;13.07;8.63;;;6.00;99.90;;;;;;5068369;28;20013;-43
2024/01/30 00:25:02;;;;;;;15.60;9.52;;;6.10;99.90;;;;;;5067587;28;20367;-44
2024/01/30 00:27:28;;;;;;;14.07;8.65;;;6.20;99.90;;;;;;5071339;28;20024;-44
2024/01/30 00:29:53;;;;;;;14.35;7.88;;;6.40;99.90;;;;;;5071685;28;20492;-45
2024/01/30 00:32:20;;;;;;;12.55;8.10;;;6.40;99.90;;;;;;5066998;28;20054;-44
2024/01/30 00:34:45;;;;;;;12.73;7.53;;;6.40;99.90;;;;;;5069001;28;20036;-46
2024/01/30 00:37:11;;;;;;;15.05;7.93;;;6.40;99.90;;;;;;5068569;28;20043;-45
2024/01/30 00:39:37;;;;;;;16.08;8.68;;;6.50;99.90;;;;;;5067167;28;20101;-44
2024/01/30 00:42:02;;;;;;;10.68;6.57;;;6.40;99.90;;;;;;5068511;28;20024;-44
2024/01/30 00:44:28;;;;;;;9.50;6.97;;;6.40;99.90;;;;;;5066569;28;20611;-44
2024/01/30 00:46:53;;;;;;;11.18;6.82;;;6.40;99.90;;;;;;5068694;28;20024;-43
2024/01/30 00:49:19;;;;;;;11.88;7.68;;;6.30;99.90;;;;;;5068616;28;20548;-43
2024/01/30 00:51:45;;;;;;;11.48;7.55;;;6.30;99.90;;;;;;5068412;28;20142;-43
2024/01/30 00:54:12;;;;;;;11.75;7.40;;;6.30;99.90;;;;;;5068314;28;20397;-44
2024/01/30 00:56:37;;;;;;;10.07;6.95;;;6.20;99.90;;;;;;5068188;28;20059;-43
2024/01/30 00:59:03;;;;;;;12.43;7.93;;;6.10;99.90;;;;;;5066656;28;20043;-45
2024/01/30 01:01:28;;;;;;;11.68;7.45;;;6.00;99.90;;;;;;5067795;28;20437;-44
2024/01/30 01:03:54;;;;;;;11.50;7.32;;;5.80;99.90;;;;;;5073617;28;20020;-43
2024/01/30 01:06:20;;;;;;;14.10;8.23;;;5.80;99.90;;;;;;5068063;28;20030;-46
2024/01/30 01:08:45;;;;;;;12.43;7.72;;;5.70;99.90;;;;;;5068071;28;20098;-44
2024/01/30 01:11:11;;;;;;;10.07;7.00;;;5.70;99.90;;;;;;5068211;28;20025;-44
2024/01/30 01:13:36;;;;;;;11.23;7.30;;;5.50;99.90;;;;;;5069979;28;20428;-45
2024/01/30 01:16:02;;;;;;;11.13;7.63;;;5.40;99.90;;;;;;5070597;28;20063;-44
2024/01/30 01:18:27;;;;;;;12.95;6.85;;;5.30;99.90;;;;;;5067733;28;20025;-44
2024/01/30 01:20:53;;;;;;;10.05;7.10;;;5.30;99.90;;;;;;5068336;28;20537;-43
2024/01/30 01:23:18;;;;;;;12.35;7.82;;;5.20;99.90;;;;;;5069052;28;20474;-43
2024/01/30 01:25:44;;;;;;;11.60;6.90;;;5.10;99.90;;;;;;5068395;28;20470;-45
2024/01/30 01:28:10;;;;;;;12.55;8.27;;;5.00;99.90;;;;;;5068653;28;20165;-44
2024/01/30 01:30:35;;;;;;;14.43;8.43;;;4.90;99.90;;;;;;5067224;28;20308;-44
2024/01/30 01:33:02;;;;;;;14.63;8.45;;;4.80;99.90;;;;;;5066818;28;20055;-45
2024/01/30 01:35:28;;;;;;;18.33;9.27;;;4.70;99.90;;;;;;5069347;28;20024;-47
2024/01/30 01:37:59;;;;;;;14.82;8.45;;;4.70;99.90;;;;;;5067436;28;20354;-43
2024/01/30 01:40:25;;;;;;;13.55;8.32;;;4.60;99.90;;;;;;5067825;28;20097;-44
2024/01/30 01:42:52;;;;;;;13.93;9.70;;;4.60;99.90;;;;;;5063251;28;20025;-45
2024/01/30 01:45:18;;;;;;;15.85;9.63;;;4.50;99.90;;;;;;5066583;28;20526;-44
2024/01/30 01:47:45;;;;;;;17.75;9.15;;;4.50;99.90;;;;;;5068168;28;20421;-42
2024/01/30 01:50:12;;;;;;;16.15;9.65;;;4.60;99.90;;;;;;5066279;28;20029;-44
2024/01/30 01:52:41;;;;;;;15.65;9.40;;;4.50;99.90;;;;;;5067241;28;20145;-46
2024/01/30 01:55:07;;;;;;;17.80;9.05;;;4.40;99.90;;;;;;5068545;28;20055;-44
2024/01/30 01:57:34;;;;;;;17.90;9.30;;;4.40;99.90;;;;;;5072988;28;20109;-44
2024/01/30 02:00:01;;;;;;;15.50;9.02;;;4.50;99.90;;;;;;5071779;28;20021;-44
2024/01/30 02:02:30;;;;;;;17.33;9.63;;;4.60;99.90;;;;;;5071573;28;20084;-45
2024/01/30 02:04:57;;;;;;;21.55;10.18;;;4.80;99.90;;;;;;5071660;28;20021;-41
2024/01/30 02:07:22;;;;;;;13.95;8.65;;;4.80;99.90;;;;;;5071450;28;20050;-40
2024/01/30 02:09:48;;;;;;;15.25;10.43;;;5.00;99.90;;;;;;5071438;28;20030;-42
2024/01/30 02:12:13;;;;;;;14.27;9.10;;;5.10;99.90;;;;;;5072647;28;20030;-42
2024/01/30 02:14:46;;;;;;;14.27;8.93;;;5.10;99.90;;;;;;5071206;28;20131;-42
2024/01/30 02:17:12;;;;;;;15.90;9.25;;;5.10;99.90;;;;;;5071664;28;20462;-41
2024/01/30 02:19:37;;;;;;;16.58;9.05;;;5.20;99.90;;;;;;5072831;28;20032;-42
2024/01/30 02:22:04;;;;;;;13.10;9.32;;;5.20;99.90;;;;;;5064507;28;20103;-42
2024/01/30 02:24:29;;;;;;;15.52;9.48;;;5.20;99.90;;;;;;5081224;28;20047;-43
2024/01/30 02:26:55;;;;;;;14.98;8.93;;;5.20;99.90;;;;;;5073130;28;20020;-42
2024/01/30 02:29:20;;;;;;;11.95;8.73;;;5.20;99.90;;;;;;5070896;28;20436;-41
2024/01/30 02:31:47;;;;;;;13.40;8.88;;;5.20;99.90;;;;;;5070737;28;20024;-43
2024/01/30 02:34:13;;;;;;;13.55;7.95;;;5.10;99.90;;;;;;5071229;28;20025;-42
2024/01/30 02:36:42;;;;;;;15.00;9.20;;;5.00;99.90;;;;;;5070700;28;20025;-41
2024/01/30 02:39:08;;;;;;;13.88;8.43;;;5.00;99.90;;;;;;5069313;28;20038;-44
2024/01/30 02:41:33;;;;;;;15.13;8.98;;;4.90;99.90;;;;;;5070425;28;20103;-44
2024/01/30 02:43:59;;;;;;;16.25;9.43;;;4.80;99.90;;;;;;5070881;28;20174;-42
2024/01/30 02:46:24;;;;;;;14.70;8.75;;;4.70;99.90;;;;;;5070999;28;20032;-44
2024/01/30 02:48:50;;;;;;;17.27;10.52;;;4.70;99.90;;;;;;5069149;28;20027;-41
2024/01/30 02:51:16;;;;;;;14.80;10.00;;;4.80;99.90;;;;;;5070296;28;20036;-43
2024/01/30 02:53:41;;;;;;;15.93;9.32;;;4.80;99.90;;;;;;5070555;28;20052;-45
2024/01/30 02:56:09;;;;;;;16.63;9.32;;;4.70;99.90;;;;;;5070726;28;20032;-43
2024/01/30 02:58:36;;;;;;;14.30;8.88;;;4.60;99.90;;;;;;5072845;28;20162;-41
2024/01/30 03:01:02;;;;;;;13.88;8.48;;;4.60;99.90;;;;;;5070656;28;20021;-43
2024/01/30 03:03:27;;;;;;;13.95;8.48;;;4.50;99.90;;;;;;5069776;28;20024;-45
2024/01/30 03:05:53;;;;;;;19.23;10.27;;;4.50;99.90;;;;;;5070555;28;20443;-42
2024/01/30 03:08:18;;;;;;;17.15;10.35;;;4.50;99.90;;;;;;5072159;28;20051;-42
2024/01/30 03:10:44;;;;;;;14.57;9.00;;;4.50;99.90;;;;;;5070561;28;20032;-41
2024/01/30 03:13:09;;;;;;;14.45;8.93;;;4.40;99.90;;;;;;5070036;28;20033;-44
2024/01/30 03:15:35;;;;;;;13.35;8.27;;;4.40;99.90;;;;;;5071189;28;20035;-42
2024/01/30 03:18:01;;;;;;;14.70;9.48;;;4.40;99.90;;;;;;5070136;28;20025;-41
2024/01/30 03:20:27;;;;;;;15.63;9.35;;;4.50;99.90;;;;;;5070028;28;20024;-45
2024/01/30 03:22:54;;;;;;;15.23;9.35;;;4.40;99.90;;;;;;5069916;28;20066;-44
2024/01/30 03:25:20;;;;;;;13.70;8.85;;;4.30;99.90;;;;;;5069766;28;20562;-40
2024/01/30 03:27:45;;;;;;;13.50;9.40;;;4.30;99.90;;;;;;5069721;28;20107;-41
2024/01/30 03:30:11;;;;;;;15.80;8.93;;;4.20;99.90;;;;;;5069740;28;20424;-42
2024/01/30 03:32:37;;;;;;;15.40;9.48;;;4.20;99.90;;;;;;5070276;28;20489;-43
2024/01/30 03:35:02;;;;;;;12.95;8.73;;;4.20;99.90;;;;;;5070542;28;20500;-42
2024/01/30 03:37:28;;;;;;;16.08;10.23;;;4.10;99.90;;;;;;5070292;28;20581;-42
2024/01/30 03:39:53;;;;;;;18.48;10.65;;;4.10;99.90;;;;;;5068400;28;20102;-41
2024/01/30 03:42:19;;;;;;;18.30;11.50;;;4.10;99.90;;;;;;5067886;28;20066;-42
2024/01/30 03:44:45;;;;;;;21.88;12.18;;;4.20;99.90;;;;;;5070543;28;20016;-41
2024/01/30 03:47:10;;;;;;;16.25;10.93;;;4.40;99.90;;;;;;5069459;28;20115;-42
2024/01/30 03:49:36;;;;;;;19.30;10.95;;;4.40;99.90;;;;;;5070843;28;20024;-41
2024/01/30 03:52:01;;;;;;;18.85;11.20;;;4.60;99.90;;;;;;5069014;28;20031;-43
2024/01/30 03:54:27;;;;;;;20.15;11.48;;;4.80;99.90;;;;;;5069443;28;20032;-42
2024/01/30 03:56:52;;;;;;;18.70;10.80;;;4.90;99.90;;;;;;5069435;28;20107;-43
2024/01/30 03:59:23;;;;;;;16.90;11.30;;;5.00;99.90;;;;;;5069091;28;20035;-44
2024/01/30 04:01:48;;;;;;;22.17;12.23;;;5.10;99.90;;;;;;5069150;28;20100;-41
2024/01/30 04:04:14;;;;;;;15.80;9.57;;;5.30;99.90;;;;;;5070066;28;20452;-45
2024/01/30 04:06:39;;;;;;;17.65;10.40;;;5.40;99.90;;;;;;5069279;28;20545;-44
2024/01/30 04:09:05;;;;;;;17.05;10.68;;;5.60;99.90;;;;;;5069186;28;20103;-42
2024/01/30 04:11:30;;;;;;;20.33;11.80;;;5.70;99.90;;;;;;5067323;28;20079;-40
2024/01/30 04:13:56;;;;;;;23.30;11.30;;;5.90;99.90;;;;;;5070014;28;20108;-45
2024/01/30 04:16:22;;;;;;;16.95;10.30;;;5.90;99.90;;;;;;5069047;28;20035;-41
2024/01/30 04:18:48;;;;;;;20.13;10.50;;;6.10;99.90;;;;;;5068121;28;20025;-43
2024/01/30 04:21:14;;;;;;;18.55;9.48;;;6.30;99.90;;;;;;5069655;28;20075;-42
2024/01/30 04:23:42;;;;;;;17.50;10.70;;;6.40;99.90;;;;;;5069121;28;20381;-46
2024/01/30 04:26:08;;;;;;;15.43;8.82;;;6.50;99.90;;;;;;5069183;28;20025;-45
2024/01/30 04:28:34;;;;;;;19.60;10.70;;;6.60;99.90;;;;;;5068615;28;20133;-42
2024/01/30 04:30:59;;;;;;;15.43;9.20;;;6.60;99.90;;;;;;5068842;28;20466;-41
2024/01/30 04:33:25;;;;;;;17.20;9.80;;;6.70;99.90;;;;;;5068613;28;20027;-42
2024/01/30 04:35:51;;;;;;;13.60;8.70;;;6.70;99.90;;;;;;5068792;28;20099;-42
2024/01/30 04:38:17;;;;;;;15.27;10.27;;;6.80;99.90;;;;;;5067147;28;20017;-43
2024/01/30 04:40:43;;;;;;;15.15;8.82;;;6.90;99.90;;;;;;5068335;28;20504;-42
2024/01/30 04:43:08;;;;;;;22.58;9.65;;;6.90;99.90;;;;;;5068463;28;20453;-43
2024/01/30 04:45:34;;;;;;;14.57;8.77;;;7.00;99.90;;;;;;5066487;28;20024;-44
2024/01/30 04:48:00;;;;;;;15.35;8.38;;;7.00;99.90;;;;;;5068004;28;20131;-43
2024/01/30 04:50:26;;;;;;;16.80;8.73;;;6.90;99.90;;;;;;5068103;28;20086;-45
2024/01/30 04:52:52;;;;;;;15.90;8.75;;;6.90;99.90;;;;;;5060031;28;20027;-42
2024/01/30 04:55:18;;;;;;;13.10;8.20;;;7.00;99.90;;;;;;5067973;28;20028;-43
2024/01/30 04:57:43;;;;;;;16.45;8.70;;;7.00;99.90;;;;;;5066196;28;20024;-44
2024/01/30 05:00:09;;;;;;;16.17;8.68;;;7.00;99.90;;;;;;5067879;28;20507;-46
2024/01/30 05:02:35;;;;;;;12.00;7.95;;;6.90;99.90;;;;;;5066502;28;20020;-42
2024/01/30 05:05:01;;;;;;;19.50;8.90;;;6.90;99.90;;;;;;5068685;28;20021;-44
2024/01/30 05:07:26;;;;;;;12.38;8.75;;;6.90;99.90;;;;;;5068279;28;20017;-43
2024/01/30 05:09:52;;;;;;;16.17;9.65;;;6.90;99.90;;;;;;5076601;28;20486;-43
2024/01/30 05:12:18;;;;;;;17.20;8.88;;;6.90;99.90;;;;;;5068022;28;20029;-42
2024/01/30 05:14:43;;;;;;;13.32;8.35;;;7.00;99.90;;;;;;5074852;28;20039;-43
2024/01/30 05:17:12;;;;;;;13.85;9.05;;;7.10;99.90;;;;;;5066387;28;20060;-41
2024/01/30 05:19:38;;;;;;;15.38;8.98;;;7.10;99.90;;;;;;5066359;28;20028;-46
2024/01/30 05:22:03;;;;;;;16.75;9.00;;;7.10;99.90;;;;;;5072580;28;20012;-44
2024/01/30 05:24:29;;;;;;;18.00;9.27;;;7.10;99.90;;;;;;5087179;28;20012;-45
2024/01/30 05:26:55;;;;;;;13.35;8.40;;;7.10;99.90;;;;;;5067785;28;20467;-42
2024/01/30 05:29:20;;;;;;;19.02;10.18;;;7.20;99.90;;;;;;5067841;28;20044;-44
2024/01/30 05:31:46;;;;;;;14.25;9.02;;;7.20;99.90;;;;;;5067276;28;20044;-44
2024/01/30 05:34:11;;;;;;;14.77;9.38;;;7.20;99.90;;;;;;5073687;28;20358;-44
2024/01/30 05:36:37;;;;;;;14.77;8.65;;;7.20;99.90;;;;;;5077533;28;20025;-44
2024/01/30 05:39:02;;;;;;;15.27;9.55;;;7.10;99.90;;;;;;5067729;28;20028;-45
2024/01/30 05:41:29;;;;;;;21.38;9.27;;;7.20;99.90;;;;;;5067495;28;20055;-43
2024/01/30 05:43:55;;;;;;;17.83;10.02;;;7.20;99.90;;;;;;5068157;28;20020;-45
2024/01/30 05:46:20;;;;;;;14.63;8.30;;;7.20;99.90;;;;;;5067697;28;20032;-44
2024/01/30 05:48:46;;;;;;;17.10;8.77;;;7.20;99.90;;;;;;5067328;28;20028;-42
2024/01/30 05:51:11;;;;;;;12.60;8.70;;;7.20;99.90;;;;;;5067457;28;20493;-44
2024/01/30 05:53:38;;;;;;;15.63;9.45;;;7.20;99.90;;;;;;5067334;28;20311;-45
2024/01/30 05:56:04;;;;;;;14.77;9.20;;;7.20;99.90;;;;;;5068113;28;20071;-44
2024/01/30 05:58:30;;;;;;;14.30;8.75;;;7.20;99.90;;;;;;5074153;28;20105;-44
2024/01/30 06:00:57;;;;;;;14.93;9.48;;;7.10;99.90;;;;;;5079174;28;20020;-46
2024/01/30 06:03:22;;;;;;;13.07;8.25;;;7.20;99.90;;;;;;5071249;28;20044;-44
2024/01/30 06:05:48;;;;;;;25.35;9.25;;;7.10;99.90;;;;;;5067498;28;20063;-44
2024/01/30 06:08:13;;;;;;;14.75;8.75;;;7.20;99.90;;;;;;5067532;28;20024;-42
2024/01/30 06:10:39;;;;;;;12.75;8.50;;;7.20;99.90;;;;;;5068019;28;20040;-43
2024/01/30 06:13:04;;;;;;;18.55;9.20;;;7.20;99.90;;;;;;5065873;28;20031;-43
2024/01/30 06:15:30;;;;;;;15.38;9.25;;;7.10;99.90;;;;;;5066815;28;20390;-42
2024/01/30 06:17:56;;;;;;;17.42;8.50;;;7.20;99.90;;;;;;5066896;28;20409;-42
2024/01/30 06:20:21;;;;;;;13.45;8.95;;;7.10;99.90;;;;;;5066795;28;20031;-42
2024/01/30 06:22:47;;;;;;;17.15;8.70;;;7.10;99.90;;;;;;5066476;28;20486;-42
2024/01/30 06:25:12;;;;;;;16.45;8.60;;;7.10;99.90;;;;;;5066731;28;20063;-42
2024/01/30 06:27:38;;;;;;;14.82;8.85;;;7.10;99.90;;;;;;5064428;28;20016;-42
2024/01/30 06:30:07;;;;;;;14.85;8.30;;;7.10;99.90;;;;;;5066647;28;20033;-43
2024/01/30 06:32:34;;;;;;;16.02;10.63;;;7.00;99.90;;;;;;5066516;28;20033;-42
2024/01/30 06:35:00;;;;;;;17.00;10.80;;;7.00;99.90;;;;;;5065079;28;20123;-42
2024/01/30 06:37:26;;;;;;;15.93;8.75;;;7.00;99.90;;;;;;5067066;28;20620;-43
2024/01/30 06:39:52;;;;;;;14.68;8.95;;;6.90;99.90;;;;;;5065435;28;20119;-42
2024/01/30 06:42:18;;;;;;;21.55;10.15;;;6.90;99.90;;;;;;5065917;28;20113;-44
2024/01/30 06:44:44;;;;;;;16.60;9.43;;;6.90;99.90;;;;;;5070388;28;20074;-41
2024/01/30 06:47:09;;;;;;;15.50;9.27;;;6.80;99.90;;;;;;5070343;28;20113;-42
2024/01/30 06:49:38;;;;;;;15.98;10.40;;;6.90;99.90;;;;;;5069821;28;20024;-44
2024/01/30 06:52:06;;;;;;;17.88;9.25;;;6.90;99.90;;;;;;5069979;28;20032;-42
2024/01/30 06:54:33;;;;;;;13.95;8.93;;;6.90;99.90;;;;;;5070383;28;20028;-45
2024/01/30 06:56:58;;;;;;;22.70;9.95;;;6.90;99.90;;;;;;5069554;28;20025;-43
2024/01/30 06:59:24;;;;;;;15.25;9.18;;;6.90;99.90;;;;;;5068796;28;20340;-42
2024/01/30 07:01:50;;;;;;;14.55;8.90;;;6.90;99.90;;;;;;5069403;28;20025;-46
2024/01/30 07:04:16;;;;;;;16.52;9.40;;;6.90;99.90;;;;;;5070086;28;20032;-43
2024/01/30 07:06:41;;;;;;;11.13;7.90;;;6.70;99.90;;;;;;5069799;28;20012;-43
2024/01/30 07:09:08;;;;;;;13.10;8.70;;;6.70;99.90;;;;;;5069928;28;20016;-44
2024/01/30 07:11:34;;;;;;;14.15;8.63;;;6.70;99.90;;;;;;5069515;28;20027;-45
2024/01/30 07:13:59;;;;;;;14.80;9.52;;;6.60;99.90;;;;;;5070647;28;20020;-44
2024/01/30 07:16:25;;;;;;;13.38;8.38;;;6.60;99.90;;;;;;5070481;28;20450;-43
2024/01/30 07:18:51;;;;;;;16.45;9.70;;;6.60;99.90;;;;;;5070099;28;20028;-44
2024/01/30 07:21:16;;;;;;;18.30;10.70;;;6.60;99.90;;;;;;5070137;28;20539;-46
2024/01/30 07:23:42;;;;;;;19.80;11.02;;;6.60;99.90;;;;;;5076826;28;20034;-44
2024/01/30 07:26:08;;;;;;;17.20;9.32;;;6.60;99.90;;;;;;5077549;28;20057;-45
2024/01/30 07:28:34;;;;;;;13.50;9.45;;;6.60;99.90;;;;;;5069998;28;20016;-43
2024/01/30 07:31:01;;;;;;;15.55;9.00;;;6.60;99.90;;;;;;5080348;28;20027;-43
2024/01/30 07:33:27;;;;;;;13.98;8.85;;;6.60;99.90;;;;;;5073157;28;20086;-45
2024/01/30 07:35:53;;;;;;;15.25;9.57;;;6.50;99.90;;;;;;5076477;28;20017;-43
2024/01/30 07:38:19;;;;;;;14.98;9.40;;;6.40;99.90;;;;;;5070193;28;20089;-43
2024/01/30 07:40:45;;;;;;;17.52;9.50;;;6.50;99.90;;;;;;5068315;28;20550;-44
2024/01/30 07:43:10;;;;;;;14.88;9.40;;;6.60;99.90;;;;;;5069586;28;20017;-44
2024/01/30 07:45:37;;;;;;;15.15;9.23;;;6.60;99.90;;;;;;5068388;28;20028;-43
2024/01/30 07:48:03;;;;;;;19.83;9.18;;;6.70;99.90;;;;;;5062935;28;20012;-46
2024/01/30 07:50:29;;;;;;;16.83;9.38;;;6.80;99.90;;;;;;5076797;28;20099;-45
2024/01/30 07:52:56;;;;;;;22.33;12.13;;;6.90;99.90;;;;;;5069280;28;20093;-43
2024/01/30 07:55:28;;;;;;;15.73;9.23;;;6.90;99.90;;;;;;5068306;28;20595;-43
2024/01/30 07:57:57;;;;;;;15.70;9.90;;;7.00;99.90;;;;;;5066773;28;20231;-44
2024/01/30 08:00:22;;;;;;;12.93;8.63;;;7.10;99.90;;;;;;5075983;28;20016;-42
2024/01/30 08:02:48;;;;;;;16.13;9.73;;;7.20;99.90;;;;;;5068249;28;20065;-43
2024/01/30 08:05:15;;;;;;;18.00;8.98;;;7.30;99.90;;;;;;5069893;28;20081;-43
2024/01/30 08:07:42;;;;;;;16.77;8.68;;;7.40;99.90;;;;;;5068836;28;20029;-43
2024/01/30 08:10:08;;;;;;;12.82;9.07;;;7.40;99.90;;;;;;5074459;28;20363;-43
2024/01/30 08:12:34;;;;;;;19.50;9.55;;;7.40;99.90;;;;;;5068583;28;20027;-44
2024/01/30 08:14:59;;;;;;;14.15;7.90;;;7.50;99.90;;;;;;5068798;28;20152;-44
2024/01/30 08:17:25;;;;;;;13.60;8.95;;;7.60;99.90;;;;;;5068789;28;20025;-43
2024/01/30 08:19:50;;;;;;;20.23;9.30;;;7.60;99.90;;;;;;5069034;28;20028;-43
2024/01/30 08:22:16;;;;;;;16.20;8.80;;;7.80;99.90;;;;;;5069376;28;20470;-44
2024/01/30 08:24:41;;;;;;;17.73;9.27;;;7.80;99.90;;;;;;5068906;28;20442;-43
2024/01/30 08:27:09;;;;;;;12.82;9.05;;;7.90;99.90;;;;;;5069075;28;20017;-44
2024/01/30 08:29:35;;;;;;;20.38;9.35;;;7.90;99.90;;;;;;5067372;28;20106;-45
2024/01/30 08:32:01;;;;;;;14.27;9.13;;;8.00;99.90;;;;;;5074607;28;20020;-42
2024/01/30 08:34:27;;;;;;;19.95;9.25;;;8.00;99.90;;;;;;5068574;28;20042;-44
2024/01/30 08:36:53;;;;;;;16.08;8.38;;;8.10;99.90;;;;;;5068358;28;20017;-44
2024/01/30 08:39:19;;;;;;;13.18;8.73;;;8.10;99.90;;;;;;5068313;28;20071;-44
2024/01/30 08:41:44;;;;;;;14.10;9.13;;;8.20;99.90;;;;;;5067721;28;20074;-43
2024/01/30 08:44:11;;;;;;;11.18;7.40;;;8.30;99.90;;;;;;5075910;28;20020;-45
2024/01/30 08:46:36;;;;;;;15.50;8.85;;;8.30;99.90;;;;;;5068703;28;20359;-47
2024/01/30 08:49:04;;;;;;;11.60;7.35;;;8.40;99.90;;;;;;5079222;28;20323;-44
2024/01/30 08:51:29;;;;;;;17.63;8.20;;;8.40;99.90;;;;;;5066936;28;20020;-43
2024/01/30 08:53:55;;;;;;;10.27;7.43;;;8.40;99.90;;;;;;5075521;28;20019;-46
2024/01/30 08:56:20;;;;;;;11.63;7.43;;;8.50;99.90;;;;;;5072560;28;20445;-44
2024/01/30 08:58:46;;;;;;;12.13;7.70;;;8.60;99.90;;;;;;5066339;28;20466;-44
2024/01/30 09:01:12;;;;;;;11.57;7.10;;;8.60;99.90;;;;;;5071760;28;20024;-44
2024/01/30 09:03:39;;;;;;;16.45;8.75;;;8.70;99.90;;;;;;5075316;28;20037;-44
2024/01/30 09:06:08;;;;;;;13.02;8.25;;;8.80;99.90;;;;;;5066839;28;20535;-42
2024/01/30 09:08:34;;;;;;;12.70;7.95;;;8.90;99.90;;;;;;5066229;28;20025;-41
2024/01/30 09:11:00;;;;;;;16.70;8.23;;;9.00;99.90;;;;;;5068139;28;20039;-44
2024/01/30 09:13:25;;;;;;;14.65;7.53;;;9.00;99.90;;;;;;5066491;28;20024;-45
2024/01/30 09:15:51;;;;;;;13.40;8.05;;;9.10;99.90;;;;;;5068246;28;20496;-42
2024/01/30 09:18:16;;;;;;;13.02;7.93;;;9.20;99.90;;;;;;5068572;28;20016;-43
2024/01/30 09:20:42;;;;;;;11.45;7.85;;;9.30;99.90;;;;;;5067808;28;20473;-44
2024/01/30 09:23:08;;;;;;;11.57;7.63;;;9.30;99.90;;;;;;5067255;28;20020;-46
2024/01/30 09:25:34;;;;;;;16.20;8.75;;;9.40;99.90;;;;;;5067781;28;20008;-45
2024/01/30 09:27:59;;;;;;;13.13;7.43;;;9.40;99.90;;;;;;5073594;28;20032;-43
2024/01/30 09:30:25;;;;;;;12.80;8.40;;;9.40;99.90;;;;;;5077497;28;20020;-45
2024/01/30 09:32:50;;;;;;;12.73;7.78;;;9.50;99.90;;;;;;5067661;28;20108;-44
2024/01/30 09:35:16;;;;;;;14.68;7.35;;;9.60;99.90;;;;;;5069359;28;20024;-43
2024/01/30 09:37:41;;;;;;;12.27;8.02;;;9.60;99.90;;;;;;5073289;28;20032;-46
2024/01/30 09:40:08;;;;;;;15.57;8.48;;;9.50;99.90;;;;;;5075913;28;20025;-46
2024/01/30 09:42:37;;;;;;;14.15;8.20;;;9.60;99.90;;;;;;5071785;28;20019;-43
2024/01/30 09:45:04;;;;;;;13.55;8.02;;;9.70;99.90;;;;;;5070148;28;20017;-44
2024/01/30 09:47:48;;;;;;;13.95;8.13;;;9.70;99.90;;;;;;5070315;28;20079;-44
2024/01/30 09:50:15;;;;;;;11.35;7.45;;;9.70;99.90;;;;;;5064494;28;20104;-43
2024/01/30 09:52:40;;;;;;;11.02;7.22;;;9.80;99.90;;;;;;5072785;28;20086;-44
2024/01/30 09:55:07;;;;;;;17.27;7.75;;;9.90;99.90;;;;;;5068112;28;20024;-46
2024/01/30 09:57:33;;;;;;;12.68;7.60;;;9.90;99.90;;;;;;5067340;28;20486;-43
2024/01/30 09:59:59;;;;;;;15.18;7.30;;;10.00;99.90;;;;;;5069299;28;20085;-44
2024/01/30 10:02:25;;;;;;;14.77;7.20;;;10.10;99.90;;;;;;5066728;28;20020;-45
2024/01/30 10:04:52;;;;;;;15.45;7.18;;;10.10;99.90;;;;;;5066999;28;20080;-43
2024/01/30 10:07:18;;;;;;;16.40;7.88;;;10.30;99.90;;;;;;5072510;28;20417;-46
2024/01/30 10:09:44;;;;;;;10.27;6.82;;;10.40;99.90;;;;;;5066755;28;20028;-44
2024/01/30 10:12:10;;;;;;;11.57;7.55;;;10.50;99.90;;;;;;5066583;28;20686;-44
2024/01/30 10:14:39;;;;;;;12.77;6.22;;;10.70;99.90;;;;;;5067298;28;20028;-44
2024/01/30 10:17:06;;;;;;;14.88;7.22;;;10.80;99.90;;;;;;5069305;28;20070;-43
2024/01/30 10:19:32;;;;;;;11.18;7.63;;;11.00;99.90;;;;;;5070948;28;20032;-45
2024/01/30 10:22:00;;;;;;;10.95;7.22;;;11.20;99.90;;;;;;5070493;28;20073;-44
2024/01/30 10:24:26;;;;;;;10.05;6.75;;;11.50;99.90;;;;;;5073965;28;20024;-47
2024/01/30 10:26:53;;;;;;;12.02;7.60;;;12.10;99.90;;;;;;5070829;28;20544;-45
2024/01/30 10:29:18;;;;;;;13.38;6.50;;;12.60;99.90;;;;;;5070314;28;20552;-44
2024/01/30 10:31:44;;;;;;;10.20;6.50;;;13.00;99.90;;;;;;5069136;28;20036;-46
2024/01/30 10:34:09;;;;;;;9.85;5.65;;;13.20;99.90;;;;;;5075520;28;20081;-44
2024/01/30 10:36:43;;;;;;;12.35;6.68;;;13.70;99.90;;;;;;5070625;28;20020;-43
2024/01/30 10:39:08;;;;;;;10.27;6.47;;;14.00;99.90;;;;;;5070824;28;20485;-43
2024/01/30 10:41:43;;;;;;;13.95;7.30;;;14.40;98.80;;;;;;5070588;28;20021;-44
2024/01/30 10:44:10;;;;;;;8.55;6.35;;;14.50;97.60;;;;;;5076087;28;20017;-44
2024/01/30 10:46:38;;;;;;;11.32;6.95;;;14.50;98.30;;;;;;5071141;28;20142;-43
2024/01/30 10:49:04;;;;;;;10.27;6.20;;;14.60;98.30;;;;;;5076258;28;20056;-43
2024/01/30 10:51:32;;;;;;;8.38;6.60;;;14.50;97.90;;;;;;5070194;28;20020;-46
2024/01/30 10:53:58;;;;;;;12.77;7.30;;;14.60;97.30;;;;;;5071901;28;20031;-45
2024/01/30 10:56:24;;;;;;;8.02;6.20;;;14.60;97.10;;;;;;5074907;28;20024;-46
2024/01/30 10:58:55;;;;;;;9.15;7.10;;;14.70;97.40;;;;;;5075599;28;20404;-44
2024/01/30 11:01:22;;;;;;;;;;;15.10;96.40;;;;;;5071164;28;20120;-46
2024/01/30 11:03:52;;;;;;;9.85;5.72;;;15.10;96.00;;;;;;5075260;28;19904;-48
2024/01/30 11:06:18;;;;;;;14.48;6.93;;;15.10;96.30;;;;;;5074928;28;20058;-43
2024/01/30 11:08:59;;;;;;;8.75;5.85;;;15.10;95.90;;;;;;5070398;28;20023;-45
2024/01/30 11:11:25;;;;;;;10.65;6.50;;;15.30;96.10;;;;;;5074783;28;20046;-47
2024/01/30 11:13:50;;;;;;;11.50;6.88;;;15.30;96.00;;;;;;5070590;28;20095;-44
2024/01/30 11:16:16;;;;;;;13.20;7.78;;;15.10;95.20;;;;;;5068782;28;20020;-47
2024/01/30 11:18:41;;;;;;;12.52;7.63;;;15.00;95.30;;;;;;5069034;28;20092;-45
2024/01/30 11:21:07;;;;;;;10.07;7.03;;;14.80;95.80;;;;;;5074055;28;20063;-43
2024/01/30 11:23:35;;;;;;;10.10;6.53;;;14.80;96.10;;;;;;5069313;28;20104;-43
2024/01/30 11:26:00;;;;;;;13.38;7.30;;;14.90;96.00;;;;;;5074326;28;20051;-43
2024/01/30 11:28:32;;;;;;;13.25;8.13;;;14.80;96.00;;;;;;5068934;28;20045;-46
2024/01/30 11:31:07;;;;;;;11.95;7.25;;;14.60;95.60;;;;;;5067824;28;20087;-45
2024/01/30 11:33:34;;;;;;;13.00;7.78;;;14.40;96.60;;;;;;5071669;28;20047;-44
2024/01/30 11:36:00;;;;;;;16.15;7.93;;;14.30;96.50;;;;;;5068314;28;20021;-44
2024/01/30 11:38:27;;;;;;;11.68;7.13;;;14.00;96.40;;;;;;5069307;28;20032;-44
2024/01/30 11:40:55;;;;;;;13.23;7.60;;;13.90;97.10;;;;;;5074453;28;20027;-44
2024/01/30 11:43:21;;;;;;;14.70;7.63;;;13.70;97.20;;;;;;5069174;28;20092;-43
2024/01/30 11:45:46;;;;;;;14.13;7.40;;;13.80;97.20;;;;;;5073473;28;20107;-43
2024/01/30 11:48:12;;;;;;;13.80;7.28;;;13.70;97.40;;;;;;5073799;28;20128;-44
2024/01/30 11:50:39;;;;;;;11.13;6.93;;;13.80;97.50;;;;;;5069390;28;20044;-43
2024/01/30 11:53:05;;;;;;;9.23;6.28;;;13.90;97.30;;;;;;5069150;28;20173;-45
2024/01/30 11:55:31;;;;;;;12.10;7.57;;;14.00;97.60;;;;;;5069565;28;20485;-46
2024/01/30 11:57:58;;;;;;;12.27;7.30;;;13.80;97.80;;;;;;5068937;28;20024;-45
2024/01/30 12:00:24;;;;;;;11.07;7.25;;;13.70;97.70;;;;;;5069423;28;20059;-46
2024/01/30 12:02:50;;;;;;;12.93;8.15;;;13.60;97.80;;;;;;5064950;28;20048;-43
2024/01/30 12:05:16;;;;;;;9.90;7.22;;;13.40;97.70;;;;;;5067731;28;20070;-45
2024/01/30 12:07:45;;;;;;;11.30;7.55;;;13.20;98.70;;;;;;5073050;28;20024;-46
2024/01/30 12:10:13;;;;;;;13.65;7.78;;;13.00;99.00;;;;;;5070963;28;20024;-46
2024/01/30 12:12:40;;;;;;;9.15;6.85;;;12.90;99.00;;;;;;5070525;28;20107;-43
2024/01/30 12:15:07;;;;;;;17.92;7.97;;;12.90;99.70;;;;;;5068916;28;20031;-44
2024/01/30 12:17:37;;;;;;;12.13;7.30;;;12.80;99.90;;;;;;5072670;28;20218;-46
2024/01/30 12:20:09;;;;;;;11.17;7.77;;;12.70;99.90;;;;;;5068860;28;20043;-43
2024/01/30 12:22:39;;;;;;;15.70;7.88;;;12.60;99.90;;;;;;5071590;28;20796;-43
2024/01/30 12:25:09;;;;;;;14.90;8.02;;;12.50;99.90;;;;;;5066567;28;20025;-47
2024/01/30 12:27:35;;;;;;;15.03;7.97;;;12.20;99.90;;;;;;5068964;28;20381;-46
2024/01/30 12:30:04;;;;;;;12.90;8.23;;;12.20;99.90;;;;;;5067845;28;20083;-43
2024/01/30 12:32:30;;;;;;;10.70;7.32;;;12.20;99.90;;;;;;5073908;28;20351;-47
2024/01/30 12:34:56;;;;;;;12.38;7.13;;;12.20;99.90;;;;;;5068757;28;20017;-45
2024/01/30 12:37:24;;;;;;;12.88;7.80;;;12.20;99.90;;;;;;5068753;28;20047;-44